< < Back
Terminal Aerodrome Forecast


Current Version              Previous Versions:   1  2  3  4  5  6  7  8  9  

Terminal Aerodrome Forecast

767
FTUS42 KGSP 250500
TAFHKY
TAF
KHKY 250539Z 2506/2606 00000KT P6SM BKN250
     FM251200 00000KT P6SM -SHRA OVC007
     FM251500 19010G15KT 6SM -SHRA SCT014 OVC025 PROB30 2515/2520
      4SM TSRA OVC013CB
     FM252000 27012G22KT P6SM SCT110 PROB30 2522/2523 4SM TSRA
      BKN040CB
     FM252300 28010KT P6SM FEW250
     FM260500 31006KT P6SM SKC=



Latest METAR

465
SAUS70 KWBC 250900 RRF
MTRHKY
METAR KHKY 250853Z AUTO 00000KT 10SM SCT027 BKN037 13/09 A2993 RMK AO2
SLP117 T01330089 56010


USA.gov is the U.S. government's official web portal to all federal, state and local government web resources and services.